createdAt,value
2024-01-04T00:02:21.371Z,9.37
2024-01-04T00:04:48.189Z,9.41
2024-01-04T00:07:14.715Z,9.42
2024-01-04T00:09:41.205Z,9.42
2024-01-04T00:12:07.877Z,9.41
2024-01-04T00:14:34.429Z,9.40
2024-01-04T00:17:00.957Z,9.27
2024-01-04T00:19:27.579Z,9.21
2024-01-04T00:21:54.153Z,9.16
2024-01-04T00:24:20.630Z,9.13
2024-01-04T00:26:47.166Z,9.05
2024-01-04T00:29:13.720Z,9.01
2024-01-04T00:31:40.242Z,9.00
2024-01-04T00:34:08.154Z,8.99
2024-01-04T00:36:34.804Z,8.99
2024-01-04T00:39:01.509Z,8.99
2024-01-04T00:41:28.060Z,9.01
2024-01-04T00:43:54.533Z,9.05
2024-01-04T00:46:21.016Z,9.06
2024-01-04T00:48:47.609Z,8.97
2024-01-04T00:51:14.252Z,9.02
2024-01-04T00:53:41.089Z,9.08
2024-01-04T00:56:07.855Z,9.15
2024-01-04T00:58:34.324Z,9.19
2024-01-04T01:01:00.939Z,9.23
2024-01-04T01:03:27.531Z,9.24
2024-01-04T01:05:54.196Z,9.27
2024-01-04T01:08:20.768Z,9.34
2024-01-04T01:10:47.280Z,9.40
2024-01-04T01:13:15.350Z,9.45
2024-01-04T01:15:41.873Z,9.46
2024-01-04T01:18:08.495Z,9.48
2024-01-04T01:20:35.078Z,9.55
2024-01-04T01:23:01.617Z,9.56
2024-01-04T01:25:28.143Z,9.57
2024-01-04T01:27:54.592Z,9.56
2024-01-04T01:30:21.234Z,9.54
2024-01-04T01:32:47.920Z,9.54
2024-01-04T01:35:15.208Z,9.45
2024-01-04T01:37:41.620Z,9.44
2024-01-04T01:40:08.824Z,9.41
2024-01-04T01:42:35.285Z,9.42
2024-01-04T01:45:01.958Z,9.44
2024-01-04T01:47:29.773Z,9.43
2024-01-04T01:49:57.537Z,9.44
2024-01-04T01:52:24.291Z,9.42
2024-01-04T01:54:52.278Z,9.41
2024-01-04T01:57:19.997Z,9.40
2024-01-04T01:59:46.443Z,9.33
2024-01-04T02:02:13.663Z,9.29
2024-01-04T02:04:40.984Z,9.24
2024-01-04T02:07:07.749Z,9.22
2024-01-04T02:09:34.380Z,9.19
2024-01-04T02:12:06.215Z,9.18
2024-01-04T02:14:34.128Z,9.13
2024-01-04T02:17:00.942Z,9.16
2024-01-04T02:19:28.990Z,9.17
2024-01-04T02:21:56.286Z,9.16
2024-01-04T02:24:23.138Z,9.15
2024-01-04T02:26:49.685Z,9.03
2024-01-04T02:29:16.399Z,9.06
2024-01-04T02:31:45.293Z,9.09
2024-01-04T02:34:11.905Z,9.10
2024-01-04T02:36:38.462Z,9.08
2024-01-04T02:39:05.865Z,9.06
2024-01-04T02:41:32.459Z,9.03
2024-01-04T02:43:58.961Z,8.97
2024-01-04T02:46:25.475Z,8.96
2024-01-04T02:48:52.162Z,8.98
2024-01-04T02:51:18.736Z,8.91
2024-01-04T02:53:45.282Z,8.83
2024-01-04T02:56:11.804Z,8.83
2024-01-04T02:58:38.316Z,8.82
2024-01-04T03:01:04.854Z,8.72
2024-01-04T03:03:31.529Z,8.69
2024-01-04T03:05:58.050Z,8.72
2024-01-04T03:08:24.601Z,8.67
2024-01-04T03:10:51.108Z,8.65
2024-01-04T03:13:17.608Z,8.58
2024-01-04T03:15:44.114Z,8.57
2024-01-04T03:18:10.618Z,8.45
2024-01-04T03:20:37.320Z,8.31
2024-01-04T03:23:04.194Z,8.34
2024-01-04T03:25:30.659Z,8.32
2024-01-04T03:27:57.098Z,8.26
2024-01-04T03:30:23.723Z,8.21
2024-01-04T03:32:50.379Z,8.11
2024-01-04T03:35:16.938Z,7.91
2024-01-04T03:37:43.521Z,7.92
2024-01-04T03:40:10.385Z,7.95
2024-01-04T03:42:38.150Z,7.99
2024-01-04T03:45:05.362Z,7.93
2024-01-04T03:47:32.467Z,7.89
2024-01-04T03:50:00.688Z,7.88
2024-01-04T03:52:27.394Z,7.91
2024-01-04T03:54:53.935Z,7.94
2024-01-04T03:57:20.534Z,7.84
2024-01-04T03:59:47.051Z,7.87
2024-01-04T04:02:13.806Z,7.89
2024-01-04T04:04:40.292Z,7.87
2024-01-04T04:07:06.865Z,7.81
2024-01-04T04:09:33.479Z,7.79
2024-01-04T04:12:00.113Z,7.78
2024-01-04T04:14:26.681Z,7.76
2024-01-04T04:16:53.242Z,7.77
2024-01-04T04:19:20.436Z,7.72
2024-01-04T04:21:47.052Z,7.74
2024-01-04T04:24:13.660Z,7.78
2024-01-04T04:26:40.221Z,7.78
2024-01-04T04:29:06.768Z,7.88
2024-01-04T04:31:33.320Z,7.79
2024-01-04T04:34:00.002Z,7.80
2024-01-04T04:36:26.603Z,7.90
2024-01-04T04:38:53.397Z,7.88
2024-01-04T04:41:19.999Z,7.93
2024-01-04T04:43:46.533Z,7.92
2024-01-04T04:46:13.678Z,7.90
2024-01-04T04:48:40.423Z,7.77
2024-01-04T04:51:07.184Z,7.67
2024-01-04T04:53:33.836Z,7.65
2024-01-04T04:56:00.459Z,7.73
2024-01-04T04:58:27.004Z,7.75
2024-01-04T05:00:53.568Z,7.72
2024-01-04T05:03:20.154Z,7.73
2024-01-04T05:05:46.818Z,7.72
2024-01-04T05:08:13.370Z,7.62
2024-01-04T05:10:39.926Z,7.72
2024-01-04T05:13:06.670Z,7.81
2024-01-04T05:15:33.174Z,7.78
2024-01-04T05:17:59.829Z,7.81
2024-01-04T05:20:26.408Z,7.80
2024-01-04T05:22:52.944Z,7.85
2024-01-04T05:25:19.485Z,7.78
2024-01-04T05:27:45.993Z,7.79
2024-01-04T05:30:12.705Z,7.78
2024-01-04T05:32:39.572Z,7.73
2024-01-04T05:35:07.280Z,7.72
2024-01-04T05:37:33.737Z,7.70
2024-01-04T05:40:01.477Z,7.69
2024-01-04T05:42:28.352Z,7.63
2024-01-04T05:44:54.950Z,7.62
2024-01-04T05:47:21.619Z,7.65
2024-01-04T05:49:48.245Z,7.71
2024-01-04T05:52:15.019Z,7.72
2024-01-04T05:54:41.529Z,7.76
2024-01-04T05:57:08.804Z,7.76
2024-01-04T05:59:35.425Z,7.81
2024-01-04T06:02:01.812Z,7.75
2024-01-04T06:04:28.341Z,7.77
2024-01-04T06:06:54.820Z,7.71
2024-01-04T06:09:23.012Z,7.73
2024-01-04T06:11:52.079Z,7.72
2024-01-04T06:14:19.624Z,7.80
2024-01-04T06:16:46.042Z,7.88
2024-01-04T06:19:12.722Z,7.94
2024-01-04T06:21:39.648Z,7.93
2024-01-04T06:24:06.267Z,7.93
2024-01-04T06:26:32.940Z,7.96
2024-01-04T06:28:59.451Z,8.03
2024-01-04T06:31:26.002Z,8.13
2024-01-04T06:33:52.728Z,8.22
2024-01-04T06:36:19.450Z,8.28
2024-01-04T06:38:46.005Z,8.30
2024-01-04T06:41:13.359Z,8.34
2024-01-04T06:43:39.988Z,8.38
2024-01-04T06:46:06.495Z,8.41
2024-01-04T06:48:33.197Z,8.43
2024-01-04T06:50:59.951Z,8.49
2024-01-04T06:53:27.239Z,8.50
2024-01-04T06:55:53.647Z,8.53
2024-01-04T06:58:20.144Z,8.53
2024-01-04T07:00:46.719Z,8.47
2024-01-04T07:03:13.620Z,8.45
2024-01-04T07:05:40.416Z,8.44
2024-01-04T07:08:07.162Z,8.35
2024-01-04T07:10:33.674Z,8.32
2024-01-04T07:13:00.215Z,8.26
2024-01-04T07:15:26.849Z,8.20
2024-01-04T07:17:53.648Z,8.10
2024-01-04T07:20:23.585Z,8.04
2024-01-04T07:22:53.659Z,7.95
2024-01-04T07:25:24.070Z,7.98
2024-01-04T07:27:51.116Z,7.94
2024-01-04T07:30:17.959Z,7.91
2024-01-04T07:32:45.453Z,7.91
2024-01-04T07:35:17.188Z,7.94
2024-01-04T07:37:45.373Z,7.99
2024-01-04T07:40:12.717Z,8.01
2024-01-04T07:42:39.637Z,8.02
2024-01-04T07:45:07.524Z,8.01
2024-01-04T07:47:37.967Z,8.01
2024-01-04T07:50:05.996Z,8.07
2024-01-04T07:52:32.595Z,8.15
2024-01-04T07:55:00.838Z,8.16
2024-01-04T07:57:28.428Z,8.26
2024-01-04T07:59:55.020Z,8.33
2024-01-04T08:02:21.514Z,8.43
2024-01-04T08:04:48.074Z,8.57
2024-01-04T08:07:14.788Z,8.69
2024-01-04T08:09:41.261Z,8.87
2024-01-04T08:12:10.794Z,9.03
2024-01-04T08:14:38.167Z,9.19
2024-01-04T08:17:04.777Z,9.40
2024-01-04T08:19:31.666Z,9.57
2024-01-04T08:21:58.537Z,9.69
2024-01-04T08:24:25.147Z,9.78
2024-01-04T08:26:51.729Z,9.94
2024-01-04T08:29:19.294Z,10.02
2024-01-04T08:31:45.867Z,10.13
2024-01-04T08:34:12.678Z,10.23
2024-01-04T08:36:39.957Z,10.36
2024-01-04T08:39:06.486Z,10.40
2024-01-04T08:41:33.054Z,10.51
2024-01-04T08:43:59.711Z,10.63
2024-01-04T08:46:26.216Z,10.71
2024-01-04T08:48:52.996Z,10.74
2024-01-04T08:51:19.770Z,10.81
2024-01-04T08:53:46.742Z,10.86
2024-01-04T08:56:15.226Z,10.91
2024-01-04T08:58:41.881Z,10.89
2024-01-04T09:01:08.436Z,10.96
2024-01-04T09:03:35.038Z,11.04
2024-01-04T09:06:01.640Z,11.09
2024-01-04T09:08:28.138Z,11.14
2024-01-04T09:10:54.692Z,11.17
2024-01-04T09:13:21.267Z,11.23
2024-01-04T09:15:47.750Z,11.24
2024-01-04T09:18:14.427Z,11.30
2024-01-04T09:20:41.173Z,11.35
2024-01-04T09:23:07.715Z,11.42
2024-01-04T09:25:34.261Z,11.46
2024-01-04T09:28:00.773Z,11.51
2024-01-04T09:30:30.703Z,11.47
2024-01-04T09:32:58.823Z,11.45
2024-01-04T09:35:25.484Z,11.45
2024-01-04T09:37:52.306Z,11.41
2024-01-04T09:40:20.531Z,11.45
2024-01-04T09:42:49.028Z,11.59
2024-01-04T09:45:19.706Z,11.52
2024-01-04T09:47:51.529Z,11.53
2024-01-04T09:50:19.930Z,11.61
2024-01-04T09:52:47.423Z,11.65
2024-01-04T09:55:14.201Z,11.73
2024-01-04T09:57:40.890Z,11.73
2024-01-04T10:00:09.921Z,11.76
2024-01-04T10:02:41.937Z,11.80
2024-01-04T10:05:13.734Z,11.86
2024-01-04T10:07:45.122Z,11.89
2024-01-04T10:10:17.310Z,11.90
2024-01-04T10:12:44.088Z,11.95
2024-01-04T10:15:13.008Z,12.01
2024-01-04T10:17:42.586Z,12.11
2024-01-04T10:20:09.794Z,12.30
2024-01-04T10:22:36.378Z,12.32
2024-01-04T10:25:10.394Z,12.35
2024-01-04T10:27:37.394Z,12.36
2024-01-04T10:30:07.909Z,12.38
2024-01-04T10:32:34.808Z,12.34
2024-01-04T10:35:06.197Z,12.38
2024-01-04T10:37:33.792Z,12.43
2024-01-04T10:40:04.928Z,12.46
2024-01-04T10:42:31.646Z,12.36
2024-01-04T10:44:58.426Z,12.41
2024-01-04T10:47:25.393Z,12.37
2024-01-04T10:49:59.061Z,12.32
2024-01-04T10:52:32.147Z,12.38
2024-01-04T10:55:02.014Z,12.31
2024-01-04T10:57:32.643Z,12.30
2024-01-04T11:00:01.569Z,12.37
2024-01-04T11:02:30.402Z,12.39
2024-01-04T11:04:57.542Z,12.39
2024-01-04T11:07:27.925Z,12.45
2024-01-04T11:09:55.437Z,12.49
2024-01-04T11:12:24.592Z,12.48
2024-01-04T11:14:51.247Z,12.55
2024-01-04T11:17:53.116Z,12.59
2024-01-04T11:20:51.910Z,12.57
2024-01-04T11:23:33.696Z,12.58
2024-01-04T11:26:32.091Z,12.58
2024-01-04T11:29:00.104Z,12.57
2024-01-04T11:31:26.791Z,12.53
2024-01-04T11:33:53.517Z,12.56
2024-01-04T11:36:21.142Z,12.53
2024-01-04T11:38:48.604Z,12.53
2024-01-04T11:41:15.264Z,12.57
2024-01-04T11:43:45.344Z,12.63
2024-01-04T11:46:19.921Z,12.66
2024-01-04T11:49:05.611Z,12.62
2024-01-04T11:51:33.481Z,12.62
2024-01-04T11:54:00.466Z,12.55
2024-01-04T11:56:27.940Z,12.54
2024-01-04T11:58:54.497Z,12.59
2024-01-04T12:01:23.432Z,12.50
2024-01-04T12:03:51.672Z,12.47
2024-01-04T12:06:21.200Z,12.38
2024-01-04T12:08:50.369Z,12.33
2024-01-04T12:11:21.090Z,12.33
2024-01-04T12:13:48.002Z,12.31
2024-01-04T12:16:14.573Z,12.27
2024-01-04T12:18:41.329Z,12.24
2024-01-04T12:21:15.366Z,12.22
2024-01-04T12:23:45.650Z,12.16
2024-01-04T12:26:12.741Z,12.23
2024-01-04T12:28:40.753Z,12.17
2024-01-04T12:31:09.053Z,12.21
2024-01-04T12:33:35.674Z,12.19
2024-01-04T12:36:02.549Z,12.08
2024-01-04T12:38:29.549Z,12.07
2024-01-04T12:40:56.430Z,12.10
2024-01-04T12:43:24.387Z,12.00
2024-01-04T12:46:09.573Z,11.95
2024-01-04T12:48:37.446Z,12.06
2024-01-04T12:51:16.719Z,11.98
2024-01-04T12:53:46.355Z,11.95
2024-01-04T12:56:15.369Z,11.92
2024-01-04T12:58:43.179Z,11.91
2024-01-04T13:01:09.835Z,11.91
2024-01-04T13:03:37.266Z,11.90
2024-01-04T13:06:04.372Z,11.90
2024-01-04T13:08:30.943Z,11.96
2024-01-04T13:10:57.501Z,11.83
2024-01-04T13:13:27.807Z,11.87
2024-01-04T13:15:55.326Z,11.87
2024-01-04T13:18:21.997Z,11.86
2024-01-04T13:20:48.666Z,11.84
2024-01-04T13:23:15.501Z,11.90
2024-01-04T13:25:42.268Z,11.85
2024-01-04T13:28:08.852Z,11.79
2024-01-04T13:30:35.489Z,11.80
2024-01-04T13:33:02.170Z,11.81
2024-01-04T13:35:28.692Z,11.73
2024-01-04T13:37:55.238Z,11.68
2024-01-04T13:40:21.993Z,11.74
2024-01-04T13:42:48.536Z,11.67
2024-01-04T13:45:17.250Z,11.56
2024-01-04T13:47:43.910Z,11.54
2024-01-04T13:50:11.794Z,11.49
2024-01-04T13:52:38.274Z,11.52
2024-01-04T13:55:06.125Z,11.40
2024-01-04T13:57:32.664Z,11.42
2024-01-04T13:59:59.266Z,11.40
2024-01-04T14:02:26.934Z,11.40
2024-01-04T14:04:53.424Z,11.38
2024-01-04T14:07:19.897Z,11.31
2024-01-04T14:09:46.420Z,11.34
2024-01-04T14:12:13.461Z,11.27
2024-01-04T14:14:40.290Z,11.28
2024-01-04T14:17:06.924Z,11.20
2024-01-04T14:19:33.641Z,11.15
2024-01-04T14:22:00.196Z,11.11
2024-01-04T14:24:26.787Z,11.07
2024-01-04T14:26:53.356Z,10.99
2024-01-04T14:29:19.857Z,11.02
2024-01-04T14:31:47.665Z,11.05
2024-01-04T14:34:15.061Z,11.05
2024-01-04T14:36:43.150Z,11.07
2024-01-04T14:39:11.332Z,11.06
2024-01-04T14:41:43.202Z,11.03
2024-01-04T14:44:09.811Z,10.96
2024-01-04T14:46:36.338Z,10.94
2024-01-04T14:49:04.357Z,10.91
2024-01-04T14:51:31.566Z,10.84
2024-01-04T14:53:58.091Z,10.86
2024-01-04T14:56:25.101Z,10.83
2024-01-04T14:58:51.623Z,10.84
2024-01-04T15:01:22.089Z,10.83
2024-01-04T15:03:52.582Z,10.82
2024-01-04T15:06:19.416Z,10.86
2024-01-04T15:08:46.016Z,10.85
2024-01-04T15:11:12.508Z,10.89
2024-01-04T15:13:39.020Z,10.79
2024-01-04T15:16:05.606Z,10.87
2024-01-04T15:18:32.722Z,10.79
2024-01-04T15:20:59.371Z,10.78
2024-01-04T15:23:25.935Z,10.63
2024-01-04T15:25:52.428Z,10.65
2024-01-04T15:28:20.882Z,10.68
2024-01-04T15:30:47.968Z,10.70
2024-01-04T15:33:15.269Z,10.65
2024-01-04T15:35:41.949Z,10.69
2024-01-04T15:38:10.743Z,10.69
2024-01-04T15:40:37.328Z,10.62
2024-01-04T15:43:04.782Z,10.62
2024-01-04T15:45:32.082Z,10.60
2024-01-04T15:47:58.790Z,10.65
2024-01-04T15:50:25.817Z,10.66
2024-01-04T15:52:52.415Z,10.69
2024-01-04T15:55:18.886Z,10.66
2024-01-04T15:57:46.131Z,10.67
2024-01-04T16:00:13.370Z,10.62
2024-01-04T16:02:40.511Z,10.59
2024-01-04T16:05:10.744Z,10.61
2024-01-04T16:07:38.176Z,10.57
2024-01-04T16:10:05.696Z,10.62
2024-01-04T16:12:32.255Z,10.64
2024-01-04T16:14:59.561Z,10.63
2024-01-04T16:17:26.175Z,10.65
2024-01-04T16:19:52.745Z,10.68
2024-01-04T16:22:19.275Z,10.65
2024-01-04T16:24:45.738Z,10.64
2024-01-04T16:27:12.233Z,10.67
2024-01-04T16:29:38.856Z,10.68
2024-01-04T16:32:06.566Z,10.76
2024-01-04T16:34:33.637Z,10.78
2024-01-04T16:37:01.266Z,10.76
2024-01-04T16:39:31.098Z,10.76
2024-01-04T16:41:58.609Z,10.65
2024-01-04T16:44:25.491Z,10.69
2024-01-04T16:46:53.777Z,10.67
2024-01-04T16:49:20.604Z,10.58
2024-01-04T16:51:48.391Z,10.60
2024-01-04T16:54:15.225Z,10.53
2024-01-04T16:56:41.952Z,10.48
2024-01-04T16:59:08.616Z,10.48
2024-01-04T17:01:35.288Z,10.52
2024-01-04T17:04:02.680Z,10.54
2024-01-04T17:06:30.156Z,10.52
2024-01-04T17:08:57.221Z,10.56
2024-01-04T17:11:23.947Z,10.53
2024-01-04T17:13:50.557Z,10.55
2024-01-04T17:16:20.376Z,10.54
2024-01-04T17:18:49.175Z,10.47
2024-01-04T17:21:17.114Z,10.46
2024-01-04T17:23:43.922Z,10.52
2024-01-04T17:26:11.814Z,10.48
2024-01-04T17:28:41.748Z,10.46
2024-01-04T17:31:08.789Z,10.46
2024-01-04T17:33:35.616Z,10.48
2024-01-04T17:36:16.283Z,10.46
2024-01-04T17:38:49.003Z,10.44
2024-01-04T17:41:15.632Z,10.42
2024-01-04T17:43:42.195Z,10.39
2024-01-04T17:46:08.720Z,10.39
2024-01-04T17:48:35.462Z,10.29
2024-01-04T17:51:02.573Z,10.25
2024-01-04T17:53:29.056Z,10.24
2024-01-04T17:55:55.543Z,10.18
2024-01-04T17:58:22.128Z,10.19
2024-01-04T18:00:48.908Z,10.21
2024-01-04T18:03:16.515Z,10.15
2024-01-04T18:05:43.318Z,10.15
2024-01-04T18:08:09.998Z,10.17
2024-01-04T18:10:36.672Z,10.18
2024-01-04T18:13:03.340Z,10.20
2024-01-04T18:15:30.217Z,10.20
2024-01-04T18:17:56.989Z,10.21
2024-01-04T18:20:23.634Z,10.23
2024-01-04T18:22:52.600Z,10.25
2024-01-04T18:25:19.806Z,10.31
2024-01-04T18:27:46.538Z,10.39
2024-01-04T18:30:13.373Z,10.32
2024-01-04T18:32:39.918Z,10.37
2024-01-04T18:35:06.602Z,10.39
2024-01-04T18:37:33.141Z,10.38
2024-01-04T18:39:59.703Z,10.36
2024-01-04T18:42:26.310Z,10.40
2024-01-04T18:44:52.897Z,10.36
2024-01-04T18:47:19.436Z,10.38
2024-01-04T18:49:46.252Z,10.34
2024-01-04T18:52:12.936Z,10.32
2024-01-04T18:54:40.417Z,10.27
2024-01-04T18:57:10.640Z,10.27
2024-01-04T18:59:37.541Z,10.22
2024-01-04T19:02:05.212Z,10.23
2024-01-04T19:04:32.165Z,10.20
2024-01-04T19:06:58.834Z,10.23
2024-01-04T19:09:27.482Z,10.15
2024-01-04T19:11:54.220Z,10.18
2024-01-04T19:14:20.812Z,10.04
2024-01-04T19:16:47.793Z,10.11
2024-01-04T19:19:14.551Z,10.14
2024-01-04T19:21:41.539Z,10.11
2024-01-04T19:24:08.475Z,10.06
2024-01-04T19:26:35.105Z,10.00
2024-01-04T19:29:01.673Z,10.02
2024-01-04T19:31:28.215Z,9.96
2024-01-04T19:36:23.009Z,10.05
2024-01-04T19:38:49.561Z,10.08
2024-01-04T19:41:16.144Z,10.09
2024-01-04T19:43:42.630Z,9.95
2024-01-04T19:46:10.982Z,9.97
2024-01-04T19:48:39.080Z,9.93
2024-01-04T19:51:05.964Z,9.96
2024-01-04T19:53:32.768Z,9.91
2024-01-04T19:56:01.571Z,9.91
2024-01-04T19:58:29.632Z,9.89
2024-01-04T20:00:56.439Z,9.82
2024-01-04T20:03:23.033Z,9.81
2024-01-04T20:05:49.748Z,9.76
2024-01-04T20:08:16.368Z,9.73
2024-01-04T20:10:42.909Z,9.73
2024-01-04T20:13:09.554Z,9.70
2024-01-04T20:15:36.411Z,9.71
2024-01-04T20:18:03.243Z,9.72
2024-01-04T20:20:29.853Z,9.64
2024-01-04T20:22:56.373Z,9.59
2024-01-04T20:25:22.885Z,9.57
2024-01-04T20:27:49.403Z,9.53
2024-01-04T20:30:16.065Z,9.47
2024-01-04T20:32:45.088Z,9.49
2024-01-04T20:35:11.709Z,9.48
2024-01-04T20:37:38.253Z,9.54
2024-01-04T20:40:05.446Z,9.54
2024-01-04T20:42:32.153Z,9.47
2024-01-04T20:44:58.785Z,9.44
2024-01-04T20:47:25.459Z,9.40
2024-01-04T20:49:52.488Z,9.36
2024-01-04T20:52:19.263Z,9.35
2024-01-04T20:54:45.841Z,9.34
2024-01-04T20:57:12.438Z,9.21
2024-01-04T20:59:40.965Z,9.11
2024-01-04T21:02:08.731Z,9.18
2024-01-04T21:04:36.346Z,9.18
2024-01-04T21:07:03.231Z,9.08
2024-01-04T21:09:29.844Z,9.18
2024-01-04T21:11:56.746Z,9.16
2024-01-04T21:14:23.290Z,9.11
2024-01-04T21:16:50.270Z,9.15
2024-01-04T21:19:17.814Z,9.12
2024-01-04T21:21:44.461Z,9.16
2024-01-04T21:24:14.013Z,9.23
2024-01-04T21:26:40.818Z,9.24
2024-01-04T21:29:07.566Z,9.28
2024-01-04T21:31:34.152Z,9.29
2024-01-04T21:34:00.812Z,9.28
2024-01-04T21:36:28.416Z,9.27
2024-01-04T21:38:56.113Z,9.12
2024-01-04T21:41:23.272Z,9.07
2024-01-04T21:43:49.771Z,9.04
2024-01-04T21:46:20.197Z,9.11
2024-01-04T21:48:47.012Z,9.07
2024-01-04T21:51:20.717Z,9.01
2024-01-04T21:53:49.443Z,8.96
2024-01-04T21:56:31.053Z,8.89
2024-01-04T21:58:58.134Z,8.91
2024-01-04T22:01:26.305Z,8.91
2024-01-04T22:03:53.700Z,8.82
2024-01-04T22:06:21.490Z,8.80
2024-01-04T22:08:48.248Z,8.77
2024-01-04T22:11:15.251Z,8.85
2024-01-04T22:13:41.851Z,8.84
2024-01-04T22:16:08.642Z,8.79
2024-01-04T22:18:36.659Z,8.85
2024-01-04T22:21:03.450Z,8.94
2024-01-04T22:23:29.985Z,8.81
2024-01-04T22:25:56.622Z,8.81
2024-01-04T22:28:23.423Z,8.80
2024-01-04T22:30:50.128Z,8.79
2024-01-04T22:33:17.912Z,8.82
2024-01-04T22:35:44.550Z,8.79
2024-01-04T22:38:12.336Z,8.74
2024-01-04T22:40:38.806Z,8.80
2024-01-04T22:43:05.327Z,8.76
2024-01-04T22:45:31.988Z,8.72
2024-01-04T22:47:59.555Z,8.62
2024-01-04T22:50:26.221Z,8.72
2024-01-04T22:52:52.827Z,8.80
2024-01-04T22:55:19.299Z,8.68
2024-01-04T22:57:45.798Z,8.76
2024-01-04T23:00:16.356Z,8.71
2024-01-04T23:02:42.972Z,8.68
2024-01-04T23:05:10.428Z,8.68
2024-01-04T23:07:37.006Z,8.66
2024-01-04T23:10:04.249Z,8.66
2024-01-04T23:12:31.362Z,8.64
2024-01-04T23:14:58.089Z,8.58
2024-01-04T23:17:24.763Z,8.54
2024-01-04T23:19:51.485Z,8.50
2024-01-04T23:22:24.002Z,8.52
2024-01-04T23:24:50.558Z,8.53
2024-01-04T23:27:17.067Z,8.45
2024-01-04T23:29:43.622Z,8.49
2024-01-04T23:32:11.416Z,8.46
2024-01-04T23:34:38.470Z,8.41
2024-01-04T23:37:07.040Z,8.46
2024-01-04T23:39:33.972Z,8.41
2024-01-04T23:42:00.909Z,8.44
2024-01-04T23:44:28.100Z,8.50
2024-01-04T23:46:54.552Z,8.51
2024-01-04T23:49:21.507Z,8.55
2024-01-04T23:51:48.134Z,8.50
2024-01-04T23:54:14.675Z,8.47
2024-01-04T23:56:42.259Z,8.46
2024-01-04T23:59:09.640Z,8.44
